sensor_id;sensor_type;location;lat;lon;timestamp;pressure;altitude;pressure_sealevel;temperature;humidity
216;BME280;64590;48.81286795;9.14184224;2023-04-21T00:00:50;97928.19;;;5.44;88.93
216;BME280;64590;48.81286795;9.14184224;2023-04-21T00:03:16;97931.78;;;5.22;89.44
216;BME280;64590;48.81286795;9.14184224;2023-04-21T00:05:44;97934.47;;;5.41;88.69
216;BME280;64590;48.81286795;9.14184224;2023-04-21T00:08:11;97935.91;;;5.35;89.09
216;BME280;64590;48.81286795;9.14184224;2023-04-21T00:10:37;97933.22;;;5.38;89.46
216;BME280;64590;48.81286795;9.14184224;2023-04-21T00:13:04;97924.25;;;5.42;88.69
216;BME280;64590;48.81286795;9.14184224;2023-04-21T00:15:31;97936.59;;;5.28;88.68
216;BME280;64590;48.81286795;9.14184224;2023-04-21T00:17:59;97926.69;;;5.24;88.81
216;BME280;64590;48.81286795;9.14184224;2023-04-21T00:20:25;97930.88;;;5.14;89.32
216;BME280;64590;48.81286795;9.14184224;2023-04-21T00:22:52;97917.09;;;5.14;89.79
216;BME280;64590;48.81286795;9.14184224;2023-04-21T00:25:18;97931.44;;;5.50;88.38
216;BME280;64590;48.81286795;9.14184224;2023-04-21T00:27:45;97924.28;;;5.45;88.91
216;BME280;64590;48.81286795;9.14184224;2023-04-21T00:30:12;97923.63;;;5.52;88.90
216;BME280;64590;48.81286795;9.14184224;2023-04-21T00:32:39;97922.78;;;5.48;87.47
216;BME280;64590;48.81286795;9.14184224;2023-04-21T00:35:08;97921.50;;;5.42;87.99
216;BME280;64590;48.81286795;9.14184224;2023-04-21T00:37:34;97923.22;;;5.04;89.28
216;BME280;64590;48.81286795;9.14184224;2023-04-21T00:40:03;97917.81;;;5.34;88.19
216;BME280;64590;48.81286795;9.14184224;2023-04-21T00:42:30;97911.66;;;5.18;89.39
216;BME280;64590;48.81286795;9.14184224;2023-04-21T00:44:56;97911.03;;;5.28;89.23
216;BME280;64590;48.81286795;9.14184224;2023-04-21T00:47:23;97906.16;;;5.41;88.65
216;BME280;64590;48.81286795;9.14184224;2023-04-21T00:49:50;97909.28;;;5.16;89.11
216;BME280;64590;48.81286795;9.14184224;2023-04-21T00:52:18;97910.94;;;5.47;88.24
216;BME280;64590;48.81286795;9.14184224;2023-04-21T00:54:45;97911.19;;;5.38;88.81
216;BME280;64590;48.81286795;9.14184224;2023-04-21T00:57:12;97904.59;;;5.43;88.49
216;BME280;64590;48.81286795;9.14184224;2023-04-21T00:59:38;97899.84;;;5.40;87.79
216;BME280;64590;48.81286795;9.14184224;2023-04-21T01:02:05;97905.41;;;5.21;89.05
216;BME280;64590;48.81286795;9.14184224;2023-04-21T01:04:31;97910.66;;;5.29;89.04
216;BME280;64590;48.81286795;9.14184224;2023-04-21T01:07:04;97906.16;;;5.41;88.84
216;BME280;64590;48.81286795;9.14184224;2023-04-21T01:09:32;97904.34;;;5.29;88.39
216;BME280;64590;48.81286795;9.14184224;2023-04-21T01:11:59;97901.44;;;5.18;88.74
216;BME280;64590;48.81286795;9.14184224;2023-04-21T01:14:27;97899.78;;;5.36;88.17
216;BME280;64590;48.81286795;9.14184224;2023-04-21T01:16:54;97894.66;;;5.12;89.06
216;BME280;64590;48.81286795;9.14184224;2023-04-21T01:19:21;97889.41;;;5.03;88.96
216;BME280;64590;48.81286795;9.14184224;2023-04-21T01:21:49;97886.97;;;5.21;88.22
216;BME280;64590;48.81286795;9.14184224;2023-04-21T01:24:15;97889.44;;;5.30;87.76
216;BME280;64590;48.81286795;9.14184224;2023-04-21T01:26:42;97884.88;;;5.15;88.12
216;BME280;64590;48.81286795;9.14184224;2023-04-21T01:29:13;97892.16;;;5.03;88.43
216;BME280;64590;48.81286795;9.14184224;2023-04-21T01:31:40;97888.31;;;5.08;88.62
216;BME280;64590;48.81286795;9.14184224;2023-04-21T01:34:07;97888.25;;;5.04;87.93
216;BME280;64590;48.81286795;9.14184224;2023-04-21T01:36:34;97889.59;;;4.91;88.49
216;BME280;64590;48.81286795;9.14184224;2023-04-21T01:39:02;97894.13;;;4.80;89.42
216;BME280;64590;48.81286795;9.14184224;2023-04-21T01:41:29;97892.47;;;4.98;88.21
216;BME280;64590;48.81286795;9.14184224;2023-04-21T01:43:56;97897.53;;;4.96;87.75
216;BME280;64590;48.81286795;9.14184224;2023-04-21T01:46:23;97895.56;;;4.74;89.23
216;BME280;64590;48.81286795;9.14184224;2023-04-21T01:48:49;97891.03;;;4.85;88.55
216;BME280;64590;48.81286795;9.14184224;2023-04-21T01:51:17;97888.53;;;4.76;87.76
216;BME280;64590;48.81286795;9.14184224;2023-04-21T01:53:43;97895.56;;;4.74;88.90
216;BME280;64590;48.81286795;9.14184224;2023-04-21T01:56:13;97891.69;;;4.98;87.35
216;BME280;64590;48.81286795;9.14184224;2023-04-21T01:58:40;97892.06;;;4.77;88.42
216;BME280;64590;48.81286795;9.14184224;2023-04-21T02:01:06;97884.84;;;4.69;88.88
216;BME280;64590;48.81286795;9.14184224;2023-04-21T02:03:34;97892.34;;;4.91;87.73
216;BME280;64590;48.81286795;9.14184224;2023-04-21T02:06:01;97898.88;;;5.06;87.18
216;BME280;64590;48.81286795;9.14184224;2023-04-21T02:08:28;97892.84;;;4.97;87.20
216;BME280;64590;48.81286795;9.14184224;2023-04-21T02:10:55;97897.03;;;4.91;87.10
216;BME280;64590;48.81286795;9.14184224;2023-04-21T02:13:23;97900.94;;;4.67;87.48
216;BME280;64590;48.81286795;9.14184224;2023-04-21T02:15:49;97898.03;;;4.79;88.30
216;BME280;64590;48.81286795;9.14184224;2023-04-21T02:18:16;97898.81;;;4.79;87.53
216;BME280;64590;48.81286795;9.14184224;2023-04-21T02:20:44;97903.53;;;4.60;87.73
216;BME280;64590;48.81286795;9.14184224;2023-04-21T02:23:12;97896.19;;;4.44;87.95
216;BME280;64590;48.81286795;9.14184224;2023-04-21T02:25:39;97896.75;;;4.34;88.13
216;BME280;64590;48.81286795;9.14184224;2023-04-21T02:28:05;97895.53;;;4.51;87.68
216;BME280;64590;48.81286795;9.14184224;2023-04-21T02:30:33;97899.50;;;4.53;87.83
216;BME280;64590;48.81286795;9.14184224;2023-04-21T02:33:00;97894.59;;;4.63;86.46
216;BME280;64590;48.81286795;9.14184224;2023-04-21T02:35:27;97888.75;;;4.45;87.33
216;BME280;64590;48.81286795;9.14184224;2023-04-21T02:37:53;97887.88;;;4.41;86.72
216;BME280;64590;48.81286795;9.14184224;2023-04-21T02:40:21;97887.94;;;4.25;87.30
216;BME280;64590;48.81286795;9.14184224;2023-04-21T02:42:50;97883.25;;;4.06;87.30
216;BME280;64590;48.81286795;9.14184224;2023-04-21T02:45:17;97895.34;;;4.21;87.21
216;BME280;64590;48.81286795;9.14184224;2023-04-21T02:47:45;97906.09;;;4.10;87.45
216;BME280;64590;48.81286795;9.14184224;2023-04-21T02:50:12;97907.16;;;3.86;88.65
216;BME280;64590;48.81286795;9.14184224;2023-04-21T02:52:39;97902.09;;;3.88;88.65
216;BME280;64590;48.81286795;9.14184224;2023-04-21T02:55:06;97895.97;;;3.95;88.03
216;BME280;64590;48.81286795;9.14184224;2023-04-21T02:57:33;97904.88;;;4.27;87.06
216;BME280;64590;48.81286795;9.14184224;2023-04-21T02:59:59;97900.34;;;4.35;87.13
216;BME280;64590;48.81286795;9.14184224;2023-04-21T03:02:26;97911.88;;;4.05;87.47
216;BME280;64590;48.81286795;9.14184224;2023-04-21T03:04:54;97896.19;;;3.86;87.81
216;BME280;64590;48.81286795;9.14184224;2023-04-21T03:07:21;97893.06;;;3.88;87.97
216;BME280;64590;48.81286795;9.14184224;2023-04-21T03:09:47;97888.38;;;4.08;88.09
216;BME280;64590;48.81286795;9.14184224;2023-04-21T03:12:14;97895.34;;;4.21;86.86
216;BME280;64590;48.81286795;9.14184224;2023-04-21T03:14:40;97897.34;;;4.05;87.04
216;BME280;64590;48.81286795;9.14184224;2023-04-21T03:17:07;97892.63;;;3.86;88.02
216;BME280;64590;48.81286795;9.14184224;2023-04-21T03:19:33;97883.09;;;3.80;88.56
216;BME280;64590;48.81286795;9.14184224;2023-04-21T03:22:01;97873.38;;;4.02;87.89
216;BME280;64590;48.81286795;9.14184224;2023-04-21T03:24:28;97871.41;;;4.21;87.16
216;BME280;64590;48.81286795;9.14184224;2023-04-21T03:26:55;97866.56;;;4.15;86.66
216;BME280;64590;48.81286795;9.14184224;2023-04-21T03:29:22;97881.59;;;3.82;88.13
216;BME280;64590;48.81286795;9.14184224;2023-04-21T03:31:49;97869.78;;;3.82;88.89
216;BME280;64590;48.81286795;9.14184224;2023-04-21T03:34:15;97880.66;;;3.94;88.54
216;BME280;64590;48.81286795;9.14184224;2023-04-21T03:36:42;97879.44;;;3.91;88.41
216;BME280;64590;48.81286795;9.14184224;2023-04-21T03:39:10;97879.94;;;3.97;88.51
216;BME280;64590;48.81286795;9.14184224;2023-04-21T03:41:37;97882.19;;;3.91;88.31
216;BME280;64590;48.81286795;9.14184224;2023-04-21T03:44:04;97878.13;;;4.05;87.68
216;BME280;64590;48.81286795;9.14184224;2023-04-21T03:46:31;97870.97;;;4.00;87.79
216;BME280;64590;48.81286795;9.14184224;2023-04-21T03:48:58;97869.72;;;4.17;87.39
216;BME280;64590;48.81286795;9.14184224;2023-04-21T03:51:25;97865.13;;;4.21;87.52
216;BME280;64590;48.81286795;9.14184224;2023-04-21T03:53:52;97868.06;;;4.32;86.62
216;BME280;64590;48.81286795;9.14184224;2023-04-21T03:56:20;97884.34;;;4.02;87.76
216;BME280;64590;48.81286795;9.14184224;2023-04-21T03:58:46;97888.97;;;3.97;88.30
216;BME280;64590;48.81286795;9.14184224;2023-04-21T04:01:14;97872.84;;;4.15;88.56
216;BME280;64590;48.81286795;9.14184224;2023-04-21T04:03:40;97878.91;;;4.05;88.82
216;BME280;64590;48.81286795;9.14184224;2023-04-21T04:06:07;97880.94;;;4.28;87.11
216;BME280;64590;48.81286795;9.14184224;2023-04-21T04:08:33;97886.31;;;4.20;87.53
216;BME280;64590;48.81286795;9.14184224;2023-04-21T04:11:00;97880.50;;;4.25;87.75
216;BME280;64590;48.81286795;9.14184224;2023-04-21T04:13:28;97880.00;;;4.39;87.17
216;BME280;64590;48.81286795;9.14184224;2023-04-21T04:15:55;97879.56;;;4.37;87.36
216;BME280;64590;48.81286795;9.14184224;2023-04-21T04:18:22;97860.06;;;4.23;86.55
216;BME280;64590;48.81286795;9.14184224;2023-04-21T04:20:48;97885.13;;;4.02;87.92
216;BME280;64590;48.81286795;9.14184224;2023-04-21T04:23:15;97889.69;;;3.94;88.71
216;BME280;64590;48.81286795;9.14184224;2023-04-21T04:25:41;97880.81;;;4.20;88.71
216;BME280;64590;48.81286795;9.14184224;2023-04-21T04:28:08;97882.03;;;4.23;87.94
216;BME280;64590;48.81286795;9.14184224;2023-04-21T04:30:36;97887.03;;;4.17;87.77
216;BME280;64590;48.81286795;9.14184224;2023-04-21T04:33:03;97887.59;;;4.27;87.33
216;BME280;64590;48.81286795;9.14184224;2023-04-21T04:35:29;97892.72;;;4.28;87.53
216;BME280;64590;48.81286795;9.14184224;2023-04-21T04:37:56;97881.53;;;4.37;87.44
216;BME280;64590;48.81286795;9.14184224;2023-04-21T04:40:23;97885.78;;;4.15;88.34
216;BME280;64590;48.81286795;9.14184224;2023-04-21T04:42:50;97885.06;;;4.37;88.02
216;BME280;64590;48.81286795;9.14184224;2023-04-21T04:45:17;97887.97;;;4.44;87.35
216;BME280;64590;48.81286795;9.14184224;2023-04-21T04:47:48;97885.41;;;4.55;87.33
216;BME280;64590;48.81286795;9.14184224;2023-04-21T04:50:14;97882.28;;;4.57;87.76
216;BME280;64590;48.81286795;9.14184224;2023-04-21T04:52:41;97892.25;;;4.65;87.08
216;BME280;64590;48.81286795;9.14184224;2023-04-21T04:55:11;97898.03;;;4.60;87.51
216;BME280;64590;48.81286795;9.14184224;2023-04-21T04:57:37;97900.31;;;4.54;88.25
216;BME280;64590;48.81286795;9.14184224;2023-04-21T05:00:07;97906.97;;;4.53;88.45
216;BME280;64590;48.81286795;9.14184224;2023-04-21T05:02:36;97899.56;;;4.99;86.99
216;BME280;64590;48.81286795;9.14184224;2023-04-21T05:05:05;97902.72;;;4.78;87.99
216;BME280;64590;48.81286795;9.14184224;2023-04-21T05:07:32;97907.72;;;4.73;88.81
216;BME280;64590;48.81286795;9.14184224;2023-04-21T05:09:59;97913.91;;;4.89;88.20
216;BME280;64590;48.81286795;9.14184224;2023-04-21T05:12:26;97927.25;;;4.87;88.31
216;BME280;64590;48.81286795;9.14184224;2023-04-21T05:14:53;97914.88;;;5.00;88.32
216;BME280;64590;48.81286795;9.14184224;2023-04-21T05:17:20;97932.50;;;4.96;88.01
216;BME280;64590;48.81286795;9.14184224;2023-04-21T05:19:46;97933.63;;;4.95;87.97
216;BME280;64590;48.81286795;9.14184224;2023-04-21T05:22:14;97932.00;;;4.90;88.59
216;BME280;64590;48.81286795;9.14184224;2023-04-21T05:24:41;97927.56;;;5.05;88.67
216;BME280;64590;48.81286795;9.14184224;2023-04-21T05:27:08;97915.28;;;5.22;88.54
216;BME280;64590;48.81286795;9.14184224;2023-04-21T05:29:35;97925.13;;;5.23;88.64
216;BME280;64590;48.81286795;9.14184224;2023-04-21T05:32:01;97927.38;;;5.17;89.21
216;BME280;64590;48.81286795;9.14184224;2023-04-21T05:34:28;97920.47;;;5.04;89.40
216;BME280;64590;48.81286795;9.14184224;2023-04-21T05:36:54;97934.50;;;4.99;89.70
216;BME280;64590;48.81286795;9.14184224;2023-04-21T05:39:22;97930.06;;;5.14;89.77
216;BME280;64590;48.81286795;9.14184224;2023-04-21T05:41:49;97935.91;;;5.12;89.55
216;BME280;64590;48.81286795;9.14184224;2023-04-21T05:44:16;97937.88;;;5.34;88.63
216;BME280;64590;48.81286795;9.14184224;2023-04-21T05:46:42;97943.25;;;5.27;89.28
216;BME280;64590;48.81286795;9.14184224;2023-04-21T05:49:09;97946.72;;;5.47;88.96
216;BME280;64590;48.81286795;9.14184224;2023-04-21T05:51:36;97938.78;;;5.65;89.14
216;BME280;64590;48.81286795;9.14184224;2023-04-21T05:54:03;97935.44;;;5.79;88.07
216;BME280;64590;48.81286795;9.14184224;2023-04-21T05:56:31;97934.28;;;6.06;87.31
216;BME280;64590;48.81286795;9.14184224;2023-04-21T05:58:57;97927.41;;;5.93;88.57
216;BME280;64590;48.81286795;9.14184224;2023-04-21T06:01:24;97916.94;;;5.79;89.21
216;BME280;64590;48.81286795;9.14184224;2023-04-21T06:03:50;97922.88;;;5.81;89.18
216;BME280;64590;48.81286795;9.14184224;2023-04-21T06:06:17;97919.31;;;5.81;89.84
216;BME280;64590;48.81286795;9.14184224;2023-04-21T06:08:43;97913.78;;;5.77;90.21
216;BME280;64590;48.81286795;9.14184224;2023-04-21T06:11:10;97914.28;;;5.86;90.25
216;BME280;64590;48.81286795;9.14184224;2023-04-21T06:13:38;97918.38;;;5.96;89.95
216;BME280;64590;48.81286795;9.14184224;2023-04-21T06:16:05;97918.00;;;5.98;89.62
216;BME280;64590;48.81286795;9.14184224;2023-04-21T06:18:31;97910.00;;;6.15;89.56
216;BME280;64590;48.81286795;9.14184224;2023-04-21T06:20:58;97900.06;;;6.41;88.79
216;BME280;64590;48.81286795;9.14184224;2023-04-21T06:23:24;97896.22;;;6.49;89.05
216;BME280;64590;48.81286795;9.14184224;2023-04-21T06:25:58;97906.47;;;6.48;88.64
216;BME280;64590;48.81286795;9.14184224;2023-04-21T06:28:25;97908.09;;;6.53;89.60
216;BME280;64590;48.81286795;9.14184224;2023-04-21T06:30:53;97905.75;;;6.55;89.24
216;BME280;64590;48.81286795;9.14184224;2023-04-21T06:33:20;97913.19;;;6.51;89.66
216;BME280;64590;48.81286795;9.14184224;2023-04-21T06:35:47;97912.16;;;6.63;89.16
216;BME280;64590;48.81286795;9.14184224;2023-04-21T06:38:13;97913.88;;;7.15;87.48
216;BME280;64590;48.81286795;9.14184224;2023-04-21T06:40:40;97906.00;;;7.17;86.60
216;BME280;64590;48.81286795;9.14184224;2023-04-21T06:43:06;97913.69;;;6.60;88.72
216;BME280;64590;48.81286795;9.14184224;2023-04-21T06:45:33;97912.28;;;6.77;88.30
216;BME280;64590;48.81286795;9.14184224;2023-04-21T06:48:01;97918.06;;;6.65;88.38
216;BME280;64590;48.81286795;9.14184224;2023-04-21T06:50:27;97914.59;;;7.08;87.32
216;BME280;64590;48.81286795;9.14184224;2023-04-21T06:52:54;97911.66;;;7.35;86.46
216;BME280;64590;48.81286795;9.14184224;2023-04-21T06:55:21;97905.06;;;7.02;87.46
216;BME280;64590;48.81286795;9.14184224;2023-04-21T06:57:47;97915.75;;;7.07;87.47
216;BME280;64590;48.81286795;9.14184224;2023-04-21T07:00:14;97906.94;;;6.95;87.58
216;BME280;64590;48.81286795;9.14184224;2023-04-21T07:02:41;97908.91;;;6.91;87.26
216;BME280;64590;48.81286795;9.14184224;2023-04-21T07:05:09;97906.00;;;7.21;87.46
216;BME280;64590;48.81286795;9.14184224;2023-04-21T07:07:36;97906.53;;;7.33;87.07
216;BME280;64590;48.81286795;9.14184224;2023-04-21T07:10:03;97910.31;;;7.15;87.96
216;BME280;64590;48.81286795;9.14184224;2023-04-21T07:12:29;97903.63;;;7.16;88.15
216;BME280;64590;48.81286795;9.14184224;2023-04-21T07:14:56;97911.72;;;7.42;88.07
216;BME280;64590;48.81286795;9.14184224;2023-04-21T07:17:22;97904.28;;;7.50;85.90
216;BME280;64590;48.81286795;9.14184224;2023-04-21T07:19:49;97905.88;;;7.47;86.90
216;BME280;64590;48.81286795;9.14184224;2023-04-21T07:22:17;97896.53;;;7.70;85.51
216;BME280;64590;48.81286795;9.14184224;2023-04-21T07:24:43;97899.34;;;7.77;85.55
216;BME280;64590;48.81286795;9.14184224;2023-04-21T07:27:10;97905.53;;;7.56;88.15
216;BME280;64590;48.81286795;9.14184224;2023-04-21T07:29:37;97884.56;;;7.48;87.25
216;BME280;64590;48.81286795;9.14184224;2023-04-21T07:32:03;97896.34;;;7.45;86.84
216;BME280;64590;48.81286795;9.14184224;2023-04-21T07:34:30;97892.63;;;7.74;86.37
216;BME280;64590;48.81286795;9.14184224;2023-04-21T07:36:56;97890.28;;;7.76;86.05
216;BME280;64590;48.81286795;9.14184224;2023-04-21T08:42:12;97856.72;;;9.86;79.05
216;BME280;64590;48.81286795;9.14184224;2023-04-21T08:44:39;97857.06;;;9.99;78.86
216;BME280;64590;48.81286795;9.14184224;2023-04-21T08:47:09;97839.69;;;9.87;77.97
216;BME280;64590;48.81286795;9.14184224;2023-04-21T08:49:36;97856.72;;;9.86;77.22
216;BME280;64590;48.81286795;9.14184224;2023-04-21T08:52:03;97863.06;;;9.94;78.63
216;BME280;64590;48.81286795;9.14184224;2023-04-21T08:54:30;97854.28;;;10.16;75.25
216;BME280;64590;48.81286795;9.14184224;2023-04-21T08:56:57;97868.94;;;10.13;76.40
216;BME280;64590;48.81286795;9.14184224;2023-04-21T08:59:26;97856.72;;;9.89;77.32
216;BME280;64590;48.81286795;9.14184224;2023-04-21T09:02:09;97861.03;;;9.98;77.56
216;BME280;64590;48.81286795;9.14184224;2023-04-21T09:04:40;97844.41;;;10.01;78.14
216;BME280;64590;48.81286795;9.14184224;2023-04-21T09:07:07;97861.38;;;10.21;77.58
216;BME280;64590;48.81286795;9.14184224;2023-04-21T09:09:50;97857.00;;;10.34;77.82
216;BME280;64590;48.81286795;9.14184224;2023-04-21T09:12:17;97857.31;;;10.51;76.60
216;BME280;64590;48.81286795;9.14184224;2023-04-21T09:14:46;97856.06;;;10.62;76.17
216;BME280;64590;48.81286795;9.14184224;2023-04-21T09:17:15;97850.03;;;10.74;76.20
216;BME280;64590;48.81286795;9.14184224;2023-04-21T09:19:42;97843.41;;;10.61;74.92
216;BME280;64590;48.81286795;9.14184224;2023-04-21T09:22:08;97847.31;;;10.67;77.88
216;BME280;64590;48.81286795;9.14184224;2023-04-21T09:24:44;97845.31;;;10.71;74.59
216;BME280;64590;48.81286795;9.14184224;2023-04-21T09:27:11;97837.88;;;10.54;74.94
216;BME280;64590;48.81286795;9.14184224;2023-04-21T09:29:37;97843.06;;;10.41;75.41
216;BME280;64590;48.81286795;9.14184224;2023-04-21T09:32:10;97841.88;;;10.46;76.35
216;BME280;64590;48.81286795;9.14184224;2023-04-21T09:34:40;97848.97;;;10.51;75.75
216;BME280;64590;48.81286795;9.14184224;2023-04-21T09:37:10;97835.75;;;10.76;75.87
216;BME280;64590;48.81286795;9.14184224;2023-04-21T09:39:36;97830.22;;;10.72;74.44
216;BME280;64590;48.81286795;9.14184224;2023-04-21T09:42:03;97831.69;;;10.91;74.33
216;BME280;64590;48.81286795;9.14184224;2023-04-21T09:44:30;97835.38;;;10.78;75.23
216;BME280;64590;48.81286795;9.14184224;2023-04-21T09:46:59;97841.69;;;10.82;76.38
216;BME280;64590;48.81286795;9.14184224;2023-04-21T09:49:30;97833.31;;;10.85;74.42
216;BME280;64590;48.81286795;9.14184224;2023-04-21T09:51:57;97837.56;;;11.00;75.55
216;BME280;64590;48.81286795;9.14184224;2023-04-21T09:54:29;97839.06;;;11.16;73.63
216;BME280;64590;48.81286795;9.14184224;2023-04-21T09:56:59;97833.56;;;11.09;74.30
216;BME280;64590;48.81286795;9.14184224;2023-04-21T09:59:28;97831.00;;;11.28;73.87
216;BME280;64590;48.81286795;9.14184224;2023-04-21T10:01:56;97827.47;;;11.24;74.79
216;BME280;64590;48.81286795;9.14184224;2023-04-21T10:04:25;97819.78;;;11.43;73.93
216;BME280;64590;48.81286795;9.14184224;2023-04-21T10:06:54;97820.44;;;11.57;73.86
216;BME280;64590;48.81286795;9.14184224;2023-04-21T10:09:22;97820.75;;;11.67;72.21
216;BME280;64590;48.81286795;9.14184224;2023-04-21T10:11:57;97824.56;;;11.83;73.71
216;BME280;64590;48.81286795;9.14184224;2023-04-21T10:14:27;97811.00;;;11.89;72.87
216;BME280;64590;48.81286795;9.14184224;2023-04-21T10:16:57;97802.44;;;11.69;72.54
216;BME280;64590;48.81286795;9.14184224;2023-04-21T10:19:28;97796.50;;;11.67;72.85
216;BME280;64590;48.81286795;9.14184224;2023-04-21T10:22:01;97804.13;;;11.59;72.28
216;BME280;64590;48.81286795;9.14184224;2023-04-21T10:24:28;97797.84;;;11.93;73.88
216;BME280;64590;48.81286795;9.14184224;2023-04-21T10:26:56;97805.97;;;12.41;71.04
216;BME280;64590;48.81286795;9.14184224;2023-04-21T10:29:29;97796.22;;;12.57;72.99
216;BME280;64590;48.81286795;9.14184224;2023-04-21T10:31:56;97789.75;;;12.36;71.86
216;BME280;64590;48.81286795;9.14184224;2023-04-21T10:34:33;97797.03;;;12.27;72.86
216;BME280;64590;48.81286795;9.14184224;2023-04-21T10:37:10;97790.63;;;12.30;72.67
216;BME280;64590;48.81286795;9.14184224;2023-04-21T10:39:55;97791.53;;;12.50;74.02
216;BME280;64590;48.81286795;9.14184224;2023-04-21T10:42:29;97792.63;;;12.60;71.83
216;BME280;64590;48.81286795;9.14184224;2023-04-21T10:45:01;97793.34;;;12.33;72.58
216;BME280;64590;48.81286795;9.14184224;2023-04-21T10:47:35;97781.69;;;12.45;74.19
216;BME280;64590;48.81286795;9.14184224;2023-04-21T10:53:06;97788.97;;;12.90;71.79
216;BME280;64590;48.81286795;9.14184224;2023-04-21T10:55:34;97783.88;;;12.85;73.18
216;BME280;64590;48.81286795;9.14184224;2023-04-21T10:58:01;97781.13;;;13.08;72.04
216;BME280;64590;48.81286795;9.14184224;2023-04-21T11:00:28;97782.41;;;13.04;72.97
216;BME280;64590;48.81286795;9.14184224;2023-04-21T11:02:57;97784.78;;;13.05;70.81
216;BME280;64590;48.81286795;9.14184224;2023-04-21T11:05:33;97778.84;;;13.26;70.20
216;BME280;64590;48.81286795;9.14184224;2023-04-21T11:08:03;97782.56;;;13.43;71.38
216;BME280;64590;48.81286795;9.14184224;2023-04-21T11:10:41;97786.22;;;13.60;70.69
216;BME280;64590;48.81286795;9.14184224;2023-04-21T11:13:07;97770.50;;;13.50;69.75
216;BME280;64590;48.81286795;9.14184224;2023-04-21T11:15:34;97780.19;;;13.65;70.78
216;BME280;64590;48.81286795;9.14184224;2023-04-21T11:18:00;97778.97;;;13.86;70.01
216;BME280;64590;48.81286795;9.14184224;2023-04-21T11:20:27;97781.91;;;13.99;69.52
216;BME280;64590;48.81286795;9.14184224;2023-04-21T11:22:55;97761.75;;;13.91;68.35
216;BME280;64590;48.81286795;9.14184224;2023-04-21T11:25:23;97766.31;;;14.01;69.88
216;BME280;64590;48.81286795;9.14184224;2023-04-21T11:27:53;97771.88;;;14.21;69.58
216;BME280;64590;48.81286795;9.14184224;2023-04-21T11:30:21;97776.31;;;14.19;67.47
216;BME280;64590;48.81286795;9.14184224;2023-04-21T11:32:52;97775.75;;;14.47;66.70
216;BME280;64590;48.81286795;9.14184224;2023-04-21T11:35:19;97770.28;;;14.40;67.69
216;BME280;64590;48.81286795;9.14184224;2023-04-21T11:37:48;97769.44;;;14.43;66.77
216;BME280;64590;48.81286795;9.14184224;2023-04-21T11:40:15;97762.44;;;14.71;66.15
216;BME280;64590;48.81286795;9.14184224;2023-04-21T11:42:43;97751.22;;;14.55;67.18
216;BME280;64590;48.81286795;9.14184224;2023-04-21T11:45:15;97746.66;;;14.97;66.07
216;BME280;64590;48.81286795;9.14184224;2023-04-21T11:47:42;97741.84;;;15.14;64.56
216;BME280;64590;48.81286795;9.14184224;2023-04-21T11:50:09;97720.28;;;15.43;64.25
216;BME280;64590;48.81286795;9.14184224;2023-04-21T11:52:36;97748.38;;;15.85;63.61
216;BME280;64590;48.81286795;9.14184224;2023-04-21T11:55:09;97744.47;;;15.95;61.83
216;BME280;64590;48.81286795;9.14184224;2023-04-21T11:57:38;97740.50;;;16.09;62.00
216;BME280;64590;48.81286795;9.14184224;2023-04-21T12:00:08;97744.50;;;16.62;60.77
216;BME280;64590;48.81286795;9.14184224;2023-04-21T12:02:36;97741.03;;;16.84;60.36
216;BME280;64590;48.81286795;9.14184224;2023-04-21T12:05:04;97743.91;;;17.18;59.08
216;BME280;64590;48.81286795;9.14184224;2023-04-21T12:07:32;97735.56;;;17.40;57.99
216;BME280;64590;48.81286795;9.14184224;2023-04-21T12:09:59;97740.34;;;17.87;57.31
216;BME280;64590;48.81286795;9.14184224;2023-04-21T12:12:28;97739.53;;;17.65;55.94
216;BME280;64590;48.81286795;9.14184224;2023-04-21T12:14:54;97729.34;;;17.11;57.08
216;BME280;64590;48.81286795;9.14184224;2023-04-21T12:17:22;97738.97;;;17.70;57.42
216;BME280;64590;48.81286795;9.14184224;2023-04-21T12:19:49;97733.78;;;17.81;53.96
216;BME280;64590;48.81286795;9.14184224;2023-04-21T12:22:16;97730.47;;;17.13;56.95
216;BME280;64590;48.81286795;9.14184224;2023-04-21T12:24:44;97726.63;;;17.55;57.36
216;BME280;64590;48.81286795;9.14184224;2023-04-21T12:27:12;97728.22;;;17.90;56.04
216;BME280;64590;48.81286795;9.14184224;2023-04-21T12:29:40;97715.78;;;17.78;53.40
216;BME280;64590;48.81286795;9.14184224;2023-04-21T12:32:07;97710.72;;;17.86;55.88
216;BME280;64590;48.81286795;9.14184224;2023-04-21T12:34:35;97710.78;;;17.73;55.51
216;BME280;64590;48.81286795;9.14184224;2023-04-21T12:37:02;97710.53;;;18.64;53.65
216;BME280;64590;48.81286795;9.14184224;2023-04-21T12:39:29;97711.44;;;17.99;53.22
216;BME280;64590;48.81286795;9.14184224;2023-04-21T12:41:55;97707.16;;;18.70;53.56
216;BME280;64590;48.81286795;9.14184224;2023-04-21T12:44:23;97696.44;;;18.86;50.33
216;BME280;64590;48.81286795;9.14184224;2023-04-21T12:46:50;97687.41;;;19.19;50.63
216;BME280;64590;48.81286795;9.14184224;2023-04-21T12:49:17;97678.78;;;18.86;50.39
216;BME280;64590;48.81286795;9.14184224;2023-04-21T12:51:45;97690.03;;;18.55;51.26
216;BME280;64590;48.81286795;9.14184224;2023-04-21T12:54:12;97673.78;;;18.90;50.41
216;BME280;64590;48.81286795;9.14184224;2023-04-21T12:56:38;97681.16;;;19.06;50.24
216;BME280;64590;48.81286795;9.14184224;2023-04-21T12:59:06;97680.31;;;19.64;49.11